LSPM weather

Ambri Airport
Quinto, Canton of Ticino, Switzerland

Public forecast

Using degrees Celsius for public forecast. Weather courtesy of forecast.io.

METAR (pilot weather report)

Closest report is Locarno Airport, 22.5 nm (41.7 km) SSE. Retrieved 2019/09/18 16:20 UTC (14 minutes ago):

LSZL 181620Z AUTO 27003KT 9999NDV NCD 24/18 Q1014 RMK

TAF (pilot weather forecast)

Forecast is more than 6 hours old.

Closest forecast is Meiringen Airport, 27.6 nm (51.2 km) WNW. Retrieved 2019/09/18 10:00 UTC (7 hours ago):

TAF LSMM 180925Z 1810/1916 04016KT 9999 BKN030 PROB30 TEMPO 1810/1816 04016G26KT BECMG 1818/1822 04006KT BECMG 1909/1912 04015G28KT BECMG 1911/1915 CAVOK